CYWG

Winnipeg / James Armstrong Richardson International Airport

Winnipeg, Manitoba, Canada
METAR CYWG 220300Z 16003KT 15SM SCT056 OVC130 07/04 A3019 RMK SC4AC4 SLP232
Observed Flight Rules
Sep-22 @ 03:00 UTC (39 minutes ago) Visual Flight Rules
Wind Visibility Clouds
160° at 3 knots 15 miles
Temperatures Readings
Current 7°C / 45°F
Dewpoint 4°C / 39°F
Humidity 81%
Altimeter 30.19" Hg
Pressure 1023.2 hPa
Elevation 239
METAR CYWG 220300Z 16003KT 15SM SCT056 OVC130 07/04 A3019 RMK SC4AC4 SLP232
Observed Flight Rules
Sep-22 @ 03:00 UTC
(39 minutes ago)
VFR
Wind Visibility
160° at 3 knots 15 miles
Clouds
Temperature Dewpoint
7°C / 45°F 4°C / 39°F
Humidity Altimeter Pressure
81% 30.19" Hg 1023.2 hPa